Aérodrome :
LOGIN :

S'inscrire | Disclaimer

   EN    FR    IT 

 










Légende :    VFR   VFR Marginal   IFR   IFR Intensif   IFR Très Intensif
Visi : 
Plafond : 
>= 8 km
>= 3000ft
5 à 8 km
1000 à 3000 ft
1500m à 5 km
500 à 1000 ft
800 à 1500m
200 à 500 ft
< 800m
< 200 ft
Symboles :   Orages  Brouillard  Fortes neiges  Fortes précipitations  Vent > 20 kt
SIGMETs :   Divers  Orages  Givrage  Turbulence  Onde Orograph.  Cendres Volcan.







- Altitude de l'aérodrome : 14 ft
- Code IATA : BRE


EDDW - Bremen Neuenland

DERNIER METAR :
  • 191350Z 29017KT 9999 -SHRA VCSH FEW016 FEW018CB SCT029 08/05 Q1010 TEMPO 31015G30KT SHRA

METARs EXPIRÉS :
  • 191320Z 29014KT 9999 -RA FEW016 FEW018CB SCT027 07/04 Q1010 RETSRA TEMPO 31015G30KT SHRA
  • 191250Z 28018G31KT 250V350 6000 -TSRA SCT018CB SCT036 08/05 Q1010 TEMPO 29015G35KT NSW
  • 191220Z 26008KT 9999 -SHRA FEW018CB SCT027 06/05 Q1010 TEMPO 29015G35KT SHRA
  • 191150Z 32017KT 290V350 9999 -SHRA FEW018CB BKN034 05/03 Q1010 RESHRA TEMPO 29015G35KT SHRA
  • 191120Z 32018G30KT 8000 -SHRA FEW018CB BKN033 06/03 Q1010 RESHRA TEMPO SHRA
  • 191050Z 27017KT 9999 FEW018CB SCT031 BKN130 09/05 Q1009 TEMPO 29015G35KT SHRA

TAF TAF EDDW
Valide du 19 à 12h jusqu'au 20 à 12h UTC


191100Z 1912/2012 27015G25KT 9999 SCT030
TEMPO 1912/1918 30015G35KT 4000 SHRA SCT008 BKN012CB
PROB30
TEMPO 1912/1915 31025G45KT 2500 TSRAGS BKN008CB
BECMG 1920/1923 27010KT
TEMPO 2007/2012 4000 -RADZ BKN012
PROB40
TEMPO 2009/2012 RADZ BKN007
Pas de NOTAMs connus pour ce terrain.



MET'MAP, la Météo Aéronautique d'un coup d'oeil ! - Copyright ORBIFLY Décembre 2007 - Disclaimer

ORBIFLY MET'MAP TEAM :

Programmation & Développement : Alexandra Zaïnal
Conception & Développement : Baudouin d'Aumeries
Co-Programmation & Développement : Marc-Olivier Méhu
Soutien technique & logistique : Manuel Goepfert

Contact : metmap@orbifly.com




SOURCES & CREDITS :

   NOAA